Home > Products > Valid Products > TAF

000
FTUS44 KJAN 272300
TAFGWO
TAF
KGWO 272329Z 2800/2824 VRB02KT P6SM SKC
     FM281300 18008KT P6SM SKC=



000
FTUS44 KJAN 272300
TAFJAN
TAF
KJAN 272329Z 2800/2824 VRB04KT P6SM SKC
     FM281400 16006KT P6SM SKC=



000
FTUS44 KJAN 272300
TAFGLH
TAF
KGLH 272329Z 2800/2824 VRB03KT P6SM SKC
     FM281400 19010KT P6SM SKC=



000
FTUS44 KJAN 272300
TAFHBG
TAF
KHBG 272329Z 2800/2824 VRB04KT P6SM SKC
     FM281500 15006KT P6SM SKC=



000
FTUS44 KJAN 272300
TAFMEI
TAF
KMEI 272329Z 2800/2824 VRB04KT P6SM SKC
     FM281400 15006KT P6SM SKC=



000
FTUS44 KJAN 271900 AAA
TAFGLH
TAF AMD
KGLH 271917Z 2719/2818 36011KT P6SM SCT035
     FM272100 01007KT P6SM SKC
     FM280000 00000KT P6SM SKC
     FM281300 19010KT P6SM SKC=



000
FTUS44 KJAN 271700
TAFMEI
TAF
KMEI 271731Z 2718/2818 35010KT P6SM FEW035
     FM280000 00000KT P6SM SKC
     FM281300 15006KT P6SM SKC=



000
FTUS44 KJAN 271700
TAFGLH
TAF
KGLH 271731Z 2718/2818 36011KT P6SM BKN030
     FM272100 01007KT P6SM SCT035
     FM280000 00000KT P6SM SKC
     FM281300 19010KT P6SM SKC=



000
FTUS44 KJAN 271700
TAFHBG
TAF
KHBG 271731Z 2718/2818 35010KT P6SM FEW035
     FM280000 00000KT P6SM SKC
     FM281300 15006KT P6SM SKC=



000
FTUS44 KJAN 271700
TAFJAN
TAF
KJAN 271731Z 2718/2818 35010KT P6SM SKC
     FM280000 00000KT P6SM SKC
     FM281300 16006KT P6SM SKC=



000
FTUS44 KJAN 271700
TAFGWO
TAF
KGWO 271731Z 2718/2818 36011KT P6SM BKN030
     FM272100 01007KT P6SM SCT035
     FM280000 00000KT P6SM SKC
     FM281300 19008KT P6SM SKC=



000
FTUS44 KJAN 271500 AAA
TAFGLH
TAF AMD
KGLH 271506Z 2715/2812 35011KT P6SM SCT035
     FM280000 05003KT P6SM SKC=



000
FTUS44 KJAN 271300 AAA
TAFJAN
TAF AMD
KJAN 271348Z 2714/2812 35014G24KT P6SM SKC
     FM271630 35009KT P6SM SKC
     FM280000 03003KT P6SM SKC=



000
FTUS44 KJAN 271300 AAA
TAFGWO
TAF AMD
KGWO 271322Z 2713/2812 33007KT P6SM BKN035
     FM271600 33007KT P6SM SCT035
     FM280000 00000KT P6SM SKC=



000
FTUS44 KJAN 271100
TAFJAN
TAF
KJAN 271120Z 2712/2812 35009KT P6SM SKC
     FM280000 03003KT P6SM SKC=



000
FTUS44 KJAN 271100
TAFMEI
TAF
KMEI 271120Z 2712/2812 32005KT P6SM SKC
     FM271500 35010KT P6SM SKC
     FM280000 00000KT P6SM SKC=



000
FTUS44 KJAN 271100
TAFGWO
TAF
KGWO 271120Z 2712/2812 33007KT P6SM SKC
     FM280000 00000KT P6SM SKC=



000
FTUS44 KJAN 271100
TAFGLH
TAF
KGLH 271120Z 2712/2812 35012KT P6SM SKC
     FM280000 05003KT P6SM SKC=



000
FTUS44 KJAN 271100
TAFHBG
TAF
KHBG 271120Z 2712/2812 31005KT P6SM SKC
     FM271500 35011KT P6SM SKC
     FM280000 00000KT P6SM SKC=



000
FTUS44 KJAN 270500
TAFJAN
TAF
KJAN 270520Z 2706/2806 34007KT P6SM SKC
     FM280000 03003KT P6SM SKC=



000
FTUS44 KJAN 270500
TAFHBG
TAF
KHBG 270520Z 2706/2806 28005KT P6SM SKC
     FM270800 32006KT P6SM SKC
     FM280000 01003KT P6SM SKC=



000
FTUS44 KJAN 270500
TAFMEI
TAF
KMEI 270520Z 2706/2806 17004KT P6SM SKC
     FM270700 32006KT P6SM SKC
     FM280000 01003KT P6SM SKC=



000
FTUS44 KJAN 270500
TAFGWO
TAF
KGWO 270520Z 2706/2806 32007KT P6SM SKC
     FM280000 02003KT P6SM SKC=



000
FTUS44 KJAN 270500
TAFGLH
TAF
KGLH 270520Z 2706/2806 32009KT P6SM SKC
     FM280000 02004KT P6SM SKC=



000
FTUS44 KJAN 262300
TAFHBG
TAF
KHBG 262330Z 2700/2724 23010KT P6SM SKC
     FM270300 24007KT P6SM SKC
     FM271300 29008KT P6SM SKC
     FM272000 01005KT P6SM SKC=



000
FTUS44 KJAN 262300
TAFMEI
TAF
KMEI 262330Z 2700/2724 21010KT P6SM FEW250
     FM270200 24007KT P6SM SKC
     FM271300 29008KT P6SM SKC
     FM272000 01005KT P6SM SKC=



000
FTUS44 KJAN 262300
TAFGWO
TAF
KGWO 262330Z 2700/2724 31010KT P6SM SKC
     FM271800 01005KT P6SM SKC=



000
FTUS44 KJAN 262300
TAFJAN
TAF
KJAN 262330Z 2700/2724 23010KT P6SM FEW250
     FM270400 27007KT P6SM SKC
     FM271000 32007KT P6SM SKC
     FM272000 01005KT P6SM SKC=



000
FTUS44 KJAN 262300
TAFGLH
TAF
KGLH 262330Z 2700/2724 33010KT P6SM SKC
     FM271800 01005KT P6SM SKC=



000
FTUS44 KJAN 262200 AAB
TAFGWO
TAF AMD
KGWO 262243Z 2623/2718 29012G18KT P6SM SKC
     FM270000 32010KT P6SM SKC=



000
FTUS44 KJAN 262200 AAB
TAFGLH
TAF AMD
KGLH 262241Z 2623/2718 35010KT P6SM SKC=



000
FTUS44 KJAN 262100 AAA
TAFHBG
TAF AMD
KHBG 262107Z 2621/2718 23012G21KT P6SM SKC
     FM270300 27007KT P6SM SKC
     FM270900 33007KT P6SM SKC=



000
FTUS44 KJAN 262100 AAA
TAFJAN
TAF AMD
KJAN 262106Z 2621/2718 23015G22KT P6SM FEW250
     FM262300 25007KT P6SM SKC
     FM270300 32007KT P6SM SKC=



000
FTUS44 KJAN 262100 AAA
TAFGWO
TAF AMD
KGWO 262106Z 2621/2718 24014G22KT P6SM SKC
     FM262300 26006KT P6SM SKC
     FM271000 31006KT P6SM SKC=



000
FTUS44 KJAN 262100 AAA
TAFGLH
TAF AMD
KGLH 262106Z 2621/2718 28014G22KT P6SM SKC
     FM270600 31008KT P6SM SKC=



000
FTUS44 KJAN 262100 AAA
TAFMEI
TAF AMD
KMEI 262106Z 2621/2718 21016G20KT P6SM SKC
     FM270200 28007KT P6SM SKC
     FM271300 34008KT P6SM SKC=



000
FTUS44 KJAN 261700
TAFMEI
TAF
KMEI 261729Z 2618/2718 18004KT P6SM SKC
     FM270200 28007KT P6SM SKC
     FM271300 34008KT P6SM SKC=



000
FTUS44 KJAN 261700
TAFGWO
TAF
KGWO 261729Z 2618/2718 18013KT P6SM SKC
     FM262300 26006KT P6SM SKC
     FM271000 31006KT P6SM SKC=



000
FTUS44 KJAN 261700
TAFJAN
TAF
KJAN 261729Z 2618/2718 19010KT P6SM SKC
     FM262300 25007KT P6SM SKC
     FM270300 32007KT P6SM SKC=



000
FTUS44 KJAN 261700
TAFGLH
TAF
KGLH 261729Z 2618/2718 20017G25KT P6SM SKC
     FM262100 27010KT P6SM SKC
     FM270600 31008KT P6SM SKC=



000
FTUS44 KJAN 261700
TAFHBG
TAF
KHBG 261729Z 2618/2718 22007KT P6SM SKC
     FM270300 27007KT P6SM SKC
     FM270900 33007KT P6SM SKC=



000
FTUS44 KJAN 261100
TAFGLH
TAF
KGLH 261120Z 2612/2712 18006KT P6SM SKC
     FM261400 21017G29KT P6SM SCT200
     FM262100 27010KT P6SM SKC
     FM270600 31008KT P6SM SKC=



000
FTUS44 KJAN 261100
TAFGWO
TAF
KGWO 261120Z 2612/2712 15003KT P6SM SKC
     FM261500 20016G29KT P6SM SCT200
     FM262300 26006KT P6SM SKC=



000
FTUS44 KJAN 261100
TAFJAN
TAF
KJAN 261120Z 2612/2712 18003KT P6SM SKC
     FM261400 21015G25KT P6SM SKC
     FM262300 25007KT P6SM SKC
     FM270300 31007KT P6SM SKC=



000
FTUS44 KJAN 261100
TAFMEI
TAF
KMEI 261120Z 2612/2712 21003KT P6SM SKC
     FM261400 22015G23KT P6SM SKC
     FM270200 28007KT P6SM SKC
     FM270600 31008KT P6SM SKC=



000
FTUS44 KJAN 261100
TAFHBG
TAF
KHBG 261120Z 2612/2712 26003KT P6SM SKC
     FM261700 24016G23KT P6SM SKC
     FM270300 27007KT P6SM SKC=



000
FTUS44 KJAN 260500 RRA
TAFJAN
TAF
KJAN 260542Z 2606/2706 18003KT P6SM SKC
     FM261400 21017G27KT P6SM SKC
     FM262300 25008KT P6SM SKC
     FM270300 31006KT P6SM SKC=



000
FTUS44 KJAN 260500 RRA
TAFGLH
TAF
KGLH 260542Z 2606/2706 18005KT P6SM SKC
     FM261400 22019G30KT P6SM SCT200
     FM262100 27010KT P6SM SKC=



000
FTUS44 KJAN 260500 RRA
TAFMEI
TAF
KMEI 260542Z 2606/2706 30003KT P6SM SKC
     FM261400 22016G23KT P6SM SKC
     FM270200 28005KT P6SM SKC=



000
FTUS44 KJAN 260500 RRA
TAFGWO
TAF
KGWO 260542Z 2606/2706 13003KT P6SM SKC
     FM261500 20016G28KT P6SM SCT200
     FM262300 26007KT P6SM SKC=



000
FTUS44 KJAN 260500 RRA
TAFHBG
TAF
KHBG 260542Z 2606/2706 30003KT P6SM SKC
     FM261500 23016G23KT P6SM SKC
     FM270300 27006KT P6SM SKC=



000
FTUS44 KJAN 252300 RRA
TAFJAN
TAF
KJAN 252345Z 2600/2624 32004KT P6SM FEW120 SCT250
     FM261400 20007KT P6SM SKC
     FM261800 23010G19KT P6SM SKC=



000
FTUS44 KJAN 252300 RRA
TAFGWO
TAF
KGWO 252345Z 2600/2624 00000KT P6SM FEW250
     FM261400 20010KT P6SM FEW050
     FM261900 25014G23KT P6SM FEW050=



000
FTUS44 KJAN 252300 RRA
TAFHBG
TAF
KHBG 252345Z 2600/2624 33004KT P6SM BKN120 OVC250
     FM261400 23005KT P6SM FEW050
     FM261800 25010G19KT P6SM SKC=



000
FTUS44 KJAN 252300 RRA
TAFMEI
TAF
KMEI 252345Z 2600/2624 33005KT P6SM BKN120 OVC250
     FM261400 21005KT P6SM FEW050
     FM261800 24010G20KT P6SM SKC=



000
FTUS44 KJAN 252300 RRA
TAFGLH
TAF
KGLH 252345Z 2600/2624 VRB03KT P6SM SKC
     FM261400 21012KT P6SM FEW050
     FM261800 27015G25KT P6SM FEW050=



000
FTUS44 KJAN 251700
TAFHBG
TAF
KHBG 251733Z 2518/2618 35006KT P6SM OVC200
     FM260000 00000KT P6SM SKC=



000
FTUS44 KJAN 251700
TAFGLH
TAF
KGLH 251733Z 2518/2618 36011KT P6SM SKC
     FM260000 00000KT P6SM SKC=



000
FTUS44 KJAN 251700
TAFJAN
TAF
KJAN 251733Z 2518/2618 01008KT P6SM BKN200
     FM260000 VRB02KT P6SM SKC=



000
FTUS44 KJAN 251700
TAFGWO
TAF
KGWO 251733Z 2518/2618 36005KT P6SM SKC
     FM260000 00000KT P6SM SKC=



000
FTUS44 KJAN 251700
TAFMEI
TAF
KMEI 251733Z 2518/2618 02009KT P6SM SKC
     FM260000 00000KT P6SM SKC=



000
FTUS44 KJAN 251100
TAFHBG
TAF
KHBG 251122Z 2512/2612 35010KT P6SM OVC200=



000
FTUS44 KJAN 251100
TAFJAN
TAF
KJAN 251122Z 2512/2612 34009KT P6SM BKN200=



000
FTUS44 KJAN 251100
TAFMEI
TAF
KMEI 251122Z 2512/2612 34010KT P6SM OVC200=



000
FTUS44 KJAN 251100
TAFGLH
TAF
KGLH 251122Z 2512/2612 34010KT P6SM SCT200=



000
FTUS44 KJAN 251100
TAFGWO
TAF
KGWO 251122Z 2512/2612 35007KT P6SM SCT200=



000
FTUS44 KJAN 250500
TAFHBG
TAF
KHBG 250521Z 2506/2606 35006KT P6SM OVC200=



000
FTUS44 KJAN 250500
TAFMEI
TAF
KMEI 250521Z 2506/2606 35005KT P6SM OVC200=



000
FTUS44 KJAN 250500
TAFGWO
TAF
KGWO 250521Z 2506/2606 34004KT P6SM SCT200=



000
FTUS44 KJAN 250500
TAFGLH
TAF
KGLH 250521Z 2506/2606 31005KT P6SM SCT200=



000
FTUS44 KJAN 250500
TAFJAN
TAF
KJAN 250521Z 2506/2606 35004KT P6SM BKN200=



    US Dept of Commerce
    National Oceanic and Atmospheric Administration
    National Weather Service
    1325 East West Highway
    Silver Spring, MD 20910
    Page Author: NWS Internet Services Team
Disclaimer
Information Quality
Credits
Glossary
Privacy Policy
Freedom of Information Act (FOIA)
About Us
Career Opportunities